createdAt,value
2023-09-22T14:04:12.818Z,34.80
2023-09-22T14:08:25.267Z,35.39
2023-09-22T14:12:38.566Z,34.81
2023-09-22T14:16:52.679Z,34.78
2023-09-22T14:21:05.715Z,34.97
2023-09-22T14:25:20.261Z,34.89
2023-09-22T14:29:33.030Z,34.11
2023-09-22T14:33:46.234Z,34.29
2023-09-22T14:37:59.322Z,34.55
2023-09-22T14:42:11.907Z,34.25
2023-09-22T14:46:24.901Z,34.48
2023-09-22T14:50:37.888Z,34.36
2023-09-22T14:54:50.329Z,33.88
2023-09-22T14:59:02.797Z,33.58
2023-09-22T15:03:15.989Z,33.12
2023-09-22T15:07:28.403Z,33.11
2023-09-22T15:11:40.903Z,32.94
2023-09-22T15:15:53.418Z,33.02
2023-09-22T15:20:07.614Z,32.83
2023-09-22T15:24:20.064Z,32.86
2023-09-22T15:28:32.754Z,32.61
2023-09-22T15:32:45.288Z,32.64
2023-09-22T15:36:58.110Z,32.46
2023-09-22T15:41:11.675Z,32.24
2023-09-22T15:45:24.190Z,32.03
2023-09-22T15:49:36.815Z,31.93
2023-09-22T15:53:50.066Z,31.90
2023-09-22T15:58:02.565Z,31.71
2023-09-22T16:02:14.996Z,31.51
2023-09-22T16:06:27.731Z,31.35
2023-09-22T16:10:44.638Z,31.12
2023-09-22T16:14:57.272Z,31.03
2023-09-22T16:19:10.452Z,31.01
2023-09-22T16:23:22.987Z,30.80
2023-09-22T16:27:35.671Z,30.78
2023-09-22T16:31:48.081Z,30.48
2023-09-22T16:36:00.570Z,30.09
2023-09-22T16:40:13.573Z,29.88
2023-09-22T16:44:26.272Z,29.68
2023-09-22T16:48:39.149Z,29.55
2023-09-22T16:52:51.570Z,29.82
2023-09-22T16:57:05.117Z,29.57
2023-09-22T17:01:17.625Z,30.25
2023-09-22T17:05:30.468Z,30.40
2023-09-22T17:09:43.416Z,29.94
2023-09-22T17:13:55.925Z,30.00
2023-09-22T17:18:10.519Z,29.71
2023-09-22T17:22:25.732Z,29.20
2023-09-22T17:26:38.222Z,29.02
2023-09-22T17:30:59.092Z,28.71
2023-09-22T17:35:13.298Z,28.61
2023-09-22T17:39:25.652Z,28.49
2023-09-22T17:43:38.143Z,28.46
2023-09-22T17:47:50.872Z,28.30
2023-09-22T17:52:03.521Z,28.62
2023-09-22T17:56:16.213Z,29.09
2023-09-22T18:00:29.931Z,28.73
2023-09-22T18:04:42.723Z,28.24
2023-09-22T18:08:55.240Z,27.93
2023-09-22T18:13:10.243Z,27.89
2023-09-22T18:17:23.415Z,27.80
2023-09-22T18:21:36.363Z,27.38
2023-09-22T18:26:09.521Z,27.50
2023-09-22T18:30:23.172Z,27.17
2023-09-22T18:34:36.324Z,27.23
2023-09-22T18:38:49.062Z,27.18
2023-09-22T18:43:02.749Z,27.27
2023-09-22T18:47:15.403Z,27.27
2023-09-22T18:51:29.119Z,27.02
2023-09-22T18:55:51.600Z,26.96
2023-09-22T19:00:05.528Z,27.10
2023-09-22T19:04:19.192Z,26.91
2023-09-22T19:08:32.054Z,26.77
2023-09-22T19:12:44.564Z,26.79
2023-09-22T19:16:57.149Z,26.84
2023-09-22T19:21:09.616Z,26.86
2023-09-22T19:25:22.630Z,26.54
2023-09-22T19:29:35.192Z,26.21
2023-09-22T19:33:48.253Z,26.48
2023-09-22T19:38:01.682Z,26.52
2023-09-22T19:42:14.322Z,26.50
2023-09-22T19:46:28.365Z,26.31
2023-09-22T19:50:41.005Z,26.09
2023-09-22T19:54:53.718Z,25.96
2023-09-22T19:59:07.578Z,26.06
2023-09-22T20:03:20.519Z,25.96
2023-09-22T20:07:34.237Z,26.41
2023-09-22T20:11:48.159Z,26.19
2023-09-22T20:16:02.356Z,26.19
2023-09-22T20:20:16.534Z,25.94
2023-09-22T20:24:29.736Z,25.77
2023-09-22T20:28:42.298Z,25.81
2023-09-22T20:32:55.011Z,26.00
2023-09-22T20:37:07.569Z,25.86
2023-09-22T20:41:20.096Z,25.83
2023-09-22T20:45:32.773Z,25.73
2023-09-22T20:49:46.618Z,25.73
2023-09-22T20:53:59.532Z,25.59
2023-09-22T20:58:12.311Z,25.33
2023-09-22T21:02:24.938Z,25.13
2023-09-22T21:06:37.920Z,24.95
2023-09-22T21:10:56.682Z,24.93
2023-09-22T21:15:11.533Z,25.57
2023-09-22T21:19:26.046Z,25.61
2023-09-22T21:23:38.799Z,25.22
2023-09-22T21:27:52.431Z,25.00
2023-09-22T21:32:05.150Z,25.35
2023-09-22T21:36:19.428Z,25.27
2023-09-22T21:40:32.369Z,24.95
2023-09-22T21:44:45.440Z,24.72
2023-09-22T21:48:58.058Z,24.62
2023-09-22T21:53:11.129Z,24.18
2023-09-22T21:57:24.027Z,24.00
2023-09-22T22:01:36.572Z,24.20
2023-09-22T22:05:49.131Z,23.80
2023-09-22T22:10:02.269Z,23.65
2023-09-22T22:14:16.260Z,23.58
2023-09-22T22:18:28.827Z,24.52
2023-09-22T22:22:43.148Z,24.02
2023-09-22T22:26:56.877Z,24.25
2023-09-22T22:31:09.583Z,24.23
2023-09-22T22:35:22.542Z,23.94
2023-09-22T22:39:35.556Z,23.95
2023-09-22T22:43:48.222Z,24.25
2023-09-22T22:48:05.176Z,24.38
2023-09-22T22:52:18.044Z,24.20
2023-09-22T22:56:30.697Z,23.72
2023-09-22T23:00:43.401Z,23.33
2023-09-22T23:04:56.498Z,23.13
2023-09-22T23:09:15.506Z,23.51
2023-09-22T23:13:30.317Z,23.63
2023-09-22T23:17:42.962Z,23.28
2023-09-22T23:21:56.128Z,23.11
2023-09-22T23:26:08.645Z,23.05
2023-09-22T23:30:24.346Z,22.88
2023-09-22T23:34:37.653Z,22.80
2023-09-22T23:38:50.245Z,22.74
2023-09-22T23:43:04.909Z,22.85
2023-09-22T23:47:17.429Z,23.72
2023-09-22T23:51:29.958Z,23.09
2023-09-22T23:55:42.443Z,23.51
2023-09-22T23:59:55.039Z,23.19
